KAOH

Lima Allen County Airport

Lima, Ohio, USA
METAR KAOH 181619Z AUTO 23012KT 7SM OVC005 05/05 A3000 RMK AO2 T00500050
Observed Flight Rules
Dec-18 @ 16:19 UTC (29 minutes ago) Instrument Flight Rules
Wind Visibility Clouds
230° at 12 knots 7 miles
  • Overcast at 500' AGL
Temperatures Readings
Current 5°C / 41°F
Dewpoint 5°C / 41°F
Humidity 100%
Altimeter 30" Hg
Pressure 1016 hPa
Elevation 296
METAR KAOH 181619Z AUTO 23012KT 7SM OVC005 05/05 A3000 RMK AO2 T00500050
Observed Flight Rules
Dec-18 @ 16:19 UTC
(29 minutes ago)
IFR
Wind Visibility
230° at 12 knots 7 miles
Clouds
  • Overcast at 500' AGL
Temperature Dewpoint
5°C / 41°F 5°C / 41°F
Humidity Altimeter Pressure
100% 30" Hg 1016 hPa